Baie St.paul — CFN6120 — position and weather

sailwx.info

Track history (hours):
 
Tides and Currents Weather Stations Pressure Air Temp Water Temp Dewpoint Dewpoint Depression Visibility Wind Speed Wind Dir Waves Ship Positions

Baie St.paul

Last reported at 2017-Dec-27 04:00 UTC. Time now 2018-Jan-20 03:42 UTC.
Position N 44°06' W 082°36'.
Warning: this ship's position is 23 days out of date.

Length 225 m; draft 8.1 m.

Type: Cargo ship. MMSI: 316022391.

Wind from 300 at 19 knots

Barometer 1028.0 mb
Air temperature -14.0 ° C
Visibility: greater than 10.8 NM

Date/timePositionNaut miles runAvg speedWind from/ knotsBaromVisibWave heightAir tempDewpointWater temp
2017-Dec-27 04:00N 44°06' W 082°36'8412.4 300 / 191028.010.8 -14.0
2017-Dec-26 21:14N 45°22' W 083°25'313.0
2017-Dec-26 20:59N 45°25' W 083°28'612.7
2017-Dec-26 20:30N 45°30' W 083°33'612.6
2017-Dec-26 20:00N 45°35' W 083°37'612.4
2017-Dec-26 19:30N 45°41' W 083°42'152 9.2
2017-Dec-26 03:00N 47°24' W 086°24'14311.9 330 / 251017.0 0.1 -19.0
2017-Dec-25 15:00N 47°42' W 089°54'7811.9 310 / 151017.0 -28.0
2017-Dec-25 08:24N 47°02' W 091°33'512.2
2017-Dec-25 08:00N 47°00' W 091°40'1 1.6
2017-Dec-25 07:24N 47°01' W 091°40'0 0.0
2017-Dec-25 00:21N 47°01' W 091°40'0 0.0
2017-Dec-24 23:52N 47°01' W 091°40'0 0.4
2017-Dec-24 23:24N 47°01' W 091°40'1 1.5
2017-Dec-24 23:01N 47°00' W 091°40'1 0.7
2017-Dec-24 20:55N 46°59' W 091°39'0 1.0
2017-Dec-24 20:30N 46°60' W 091°39'54 9.8
2017-Dec-24 15:00N 47°18' W 090°24'294 7.4 330 / 131016.010.8 -9.0
2017-Dec-22 23:18N 45°43' W 083°40'413.0
2017-Dec-22 23:00N 45°40' W 083°36'613.0
2017-Dec-22 22:30N 45°34' W 083°31'613.0
2017-Dec-22 22:01N 45°29' W 083°26'9613.7
2017-Dec-22 15:00N 44°00' W 082°36'137 6.0 110 / 151015.0 0.5 -2.0
2017-Dec-21 16:00N 42°18' W 080°30'160 5.9 080 / 81021.010.8 1.0
2017-Dec-20 13:00N 43°42' W 077°24'162 7.3 300 / 301009.010.8 -0.0
2017-Dec-19 14:58N 45°13' W 074°17'510.0
2017-Dec-19 14:30N 45°14' W 074°11'4 8.9
2017-Dec-19 14:01N 45°13' W 074°04'4 8.3
2017-Dec-19 13:31N 45°15' W 073°59'4 7.9
2017-Dec-19 13:01N 45°18' W 073°56'0 0.5
2017-Dec-19 12:31N 45°18' W 073°56'1 1.4
2017-Dec-19 12:01N 45°19' W 073°55'0 0.3
2017-Dec-19 11:31N 45°19' W 073°55'0 0.8
2017-Dec-19 11:00N 45°19' W 073°55'3 6.9
2017-Dec-19 10:30N 45°21' W 073°51'510.1
2017-Dec-19 10:00N 45°24' W 073°45'4 7.4
2017-Dec-19 09:30N 45°25' W 073°40'3 6.1
2017-Dec-19 09:01N 45°24' W 073°35'1 2.2
2017-Dec-19 08:31N 45°24' W 073°34'0 0.9
2017-Dec-19 08:01N 45°24' W 073°33'2 3.7
2017-Dec-19 07:31N 45°25' W 073°31'3 6.4
2017-Dec-19 07:00N 45°28' W 073°30'2 2.1
2017-Dec-19 06:14N 45°30' W 073°31'0 1.0
2017-Dec-19 06:01N 45°30' W 073°31'0 0.1
2017-Dec-19 05:31N 45°30' W 073°31'0 0.0
2017-Dec-19 05:01N 45°30' W 073°31'0 0.0
2017-Dec-18 18:19N 45°30' W 073°31'1 2.7
2017-Dec-18 18:00N 45°31' W 073°32'1 0.0
2017-Dec-17 06:34N 45°30' W 073°31'0 3.7
2017-Dec-17 06:29N 45°30' W 073°31'0 0.4
2017-Dec-17 05:56N 45°30' W 073°31'0 0.8
2017-Dec-17 05:29N 45°29' W 073°31'1 1.1
2017-Dec-17 05:00N 45°29' W 073°31'2 4.7
2017-Dec-17 04:31N 45°26' W 073°30'3 5.2
2017-Dec-17 04:00N 45°24' W 073°32'  
Track history (hours):
 
Tides and Currents Weather Stations Pressure Air Temp Water Temp Dewpoint Dewpoint Depression Visibility Wind Speed Wind Dir Waves Ship Positions

Baie St.paul

Last reported at 2017-Dec-27 04:00 UTC. Time now 2018-Jan-20 03:42 UTC.
Position N 44°06' W 082°36'.
Warning: this ship's position is 23 days out of date.

Length 225 m; draft 8.1 m.

Type: Cargo ship. MMSI: 316022391.

Wind from 300 at 19 knots

Barometer 1028.0 mb
Air temperature -14.0 ° C
Visibility: greater than 10.8 NM

Date/timePositionNaut miles runAvg speedWind from/ knotsBaromVisibWave heightAir tempDewpointWater temp
2017-Dec-27 04:00N 44°06' W 082°36'8412.4 300 / 191028.010.8 -14.0
2017-Dec-26 21:14N 45°22' W 083°25'313.0
2017-Dec-26 20:59N 45°25' W 083°28'612.7
2017-Dec-26 20:30N 45°30' W 083°33'612.6
2017-Dec-26 20:00N 45°35' W 083°37'612.4
2017-Dec-26 19:30N 45°41' W 083°42'152 9.2
2017-Dec-26 03:00N 47°24' W 086°24'14311.9 330 / 251017.0 0.1 -19.0
2017-Dec-25 15:00N 47°42' W 089°54'7811.9 310 / 151017.0 -28.0
2017-Dec-25 08:24N 47°02' W 091°33'512.2
2017-Dec-25 08:00N 47°00' W 091°40'1 1.6
2017-Dec-25 07:24N 47°01' W 091°40'0 0.0
2017-Dec-25 00:21N 47°01' W 091°40'0 0.0
2017-Dec-24 23:52N 47°01' W 091°40'0 0.4
2017-Dec-24 23:24N 47°01' W 091°40'1 1.5
2017-Dec-24 23:01N 47°00' W 091°40'1 0.7
2017-Dec-24 20:55N 46°59' W 091°39'0 1.0
2017-Dec-24 20:30N 46°60' W 091°39'54 9.8
2017-Dec-24 15:00N 47°18' W 090°24'294 7.4 330 / 131016.010.8 -9.0
2017-Dec-22 23:18N 45°43' W 083°40'413.0
2017-Dec-22 23:00N 45°40' W 083°36'613.0
2017-Dec-22 22:30N 45°34' W 083°31'613.0
2017-Dec-22 22:01N 45°29' W 083°26'9613.7
2017-Dec-22 15:00N 44°00' W 082°36'137 6.0 110 / 151015.0 0.5 -2.0
2017-Dec-21 16:00N 42°18' W 080°30'160 5.9 080 / 81021.010.8 1.0
2017-Dec-20 13:00N 43°42' W 077°24'162 7.3 300 / 301009.010.8 -0.0
2017-Dec-19 14:58N 45°13' W 074°17'510.0
2017-Dec-19 14:30N 45°14' W 074°11'4 8.9
2017-Dec-19 14:01N 45°13' W 074°04'4 8.3
2017-Dec-19 13:31N 45°15' W 073°59'4 7.9
2017-Dec-19 13:01N 45°18' W 073°56'0 0.5
2017-Dec-19 12:31N 45°18' W 073°56'1 1.4
2017-Dec-19 12:01N 45°19' W 073°55'0 0.3
2017-Dec-19 11:31N 45°19' W 073°55'0 0.8
2017-Dec-19 11:00N 45°19' W 073°55'3 6.9
2017-Dec-19 10:30N 45°21' W 073°51'510.1
2017-Dec-19 10:00N 45°24' W 073°45'4 7.4
2017-Dec-19 09:30N 45°25' W 073°40'3 6.1
2017-Dec-19 09:01N 45°24' W 073°35'1 2.2
2017-Dec-19 08:31N 45°24' W 073°34'0 0.9
2017-Dec-19 08:01N 45°24' W 073°33'2 3.7
2017-Dec-19 07:31N 45°25' W 073°31'3 6.4
2017-Dec-19 07:00N 45°28' W 073°30'2 2.1
2017-Dec-19 06:14N 45°30' W 073°31'0 1.0
2017-Dec-19 06:01N 45°30' W 073°31'0 0.1
2017-Dec-19 05:31N 45°30' W 073°31'0 0.0
2017-Dec-19 05:01N 45°30' W 073°31'0 0.0
2017-Dec-18 18:19N 45°30' W 073°31'1 2.7
2017-Dec-18 18:00N 45°31' W 073°32'1 0.0
2017-Dec-17 06:34N 45°30' W 073°31'0 3.7
2017-Dec-17 06:29N 45°30' W 073°31'0 0.4
2017-Dec-17 05:56N 45°30' W 073°31'0 0.8
2017-Dec-17 05:29N 45°29' W 073°31'1 1.1
2017-Dec-17 05:00N 45°29' W 073°31'2 4.7
2017-Dec-17 04:31N 45°26' W 073°30'3 5.2
2017-Dec-17 04:00N 45°24' W 073°32'  

Dump ship's entire track history